createdAt,value
2023-01-26T00:03:59.988Z,-1.66
2023-01-26T00:08:06.130Z,-1.58
2023-01-26T00:12:10.482Z,-1.58
2023-01-26T00:16:16.585Z,-1.66
2023-01-26T00:20:21.068Z,-1.70
2023-01-26T00:24:26.623Z,-1.63
2023-01-26T00:28:31.098Z,-1.64
2023-01-26T00:32:36.928Z,-1.66
2023-01-26T00:36:40.821Z,-1.65
2023-01-26T00:40:46.320Z,-1.59
2023-01-26T00:44:51.619Z,-1.57
2023-01-26T00:48:55.623Z,-1.61
2023-01-26T00:52:59.525Z,-1.57
2023-01-26T00:57:04.978Z,-1.61
2023-01-26T01:01:09.372Z,-1.56
2023-01-26T01:05:13.683Z,-1.55
2023-01-26T01:09:17.625Z,-1.58
2023-01-26T01:13:22.810Z,-1.58
2023-01-26T01:17:26.914Z,-1.49
2023-01-26T01:21:32.349Z,-1.45
2023-01-26T01:25:36.300Z,-1.42
2023-01-26T01:29:40.874Z,-1.42
2023-01-26T01:33:45.692Z,-1.44
2023-01-26T01:37:50.609Z,-1.40
2023-01-26T01:41:54.339Z,-1.41
2023-01-26T01:46:02.231Z,-1.47
2023-01-26T01:50:07.497Z,-1.47
2023-01-26T01:54:14.724Z,-1.38
2023-01-26T01:58:18.823Z,-1.41
2023-01-26T02:02:24.279Z,-1.36
2023-01-26T02:06:35.207Z,-1.40
2023-01-26T02:10:39.675Z,-1.37
2023-01-26T02:14:44.005Z,-1.30
2023-01-26T02:18:49.641Z,-1.33
2023-01-26T02:22:59.995Z,-1.25
2023-01-26T02:27:05.567Z,-1.20
2023-01-26T02:31:12.360Z,-1.23
2023-01-26T02:35:16.849Z,-1.26
2023-01-26T02:39:28.238Z,-1.19
2023-01-26T02:43:34.219Z,-1.16
2023-01-26T02:47:38.261Z,-1.22
2023-01-26T02:51:42.549Z,-1.25
2023-01-26T02:55:45.985Z,-1.29
2023-01-26T02:59:51.294Z,-1.25
2023-01-26T03:03:55.249Z,-1.21
2023-01-26T03:08:01.552Z,-1.31
2023-01-26T03:12:11.699Z,-1.25
2023-01-26T03:16:18.871Z,-1.28
2023-01-26T03:20:40.076Z,-1.24
2023-01-26T03:25:01.230Z,-1.14
2023-01-26T03:29:05.986Z,-1.13
2023-01-26T03:33:12.238Z,-1.11
2023-01-26T03:37:16.605Z,-1.10
2023-01-26T03:41:43.699Z,-1.10
2023-01-26T03:46:04.812Z,-1.08
2023-01-26T03:50:29.257Z,-1.07
2023-01-26T03:54:50.735Z,-1.08
2023-01-26T03:58:57.088Z,-1.15
2023-01-26T04:03:21.871Z,-1.04
2023-01-26T04:07:44.632Z,-1.17
2023-01-26T04:11:48.886Z,-1.12
2023-01-26T04:16:10.485Z,-1.02
2023-01-26T04:20:31.998Z,-1.01
2023-01-26T04:24:37.465Z,-1.07
2023-01-26T04:28:41.733Z,-1.06
2023-01-26T04:32:47.297Z,-1.02
2023-01-26T04:36:51.393Z,-1.04
2023-01-26T04:40:58.380Z,-0.94
2023-01-26T04:45:02.202Z,-0.93
2023-01-26T04:49:07.853Z,-0.92
2023-01-26T04:53:11.974Z,-0.94
2023-01-26T04:57:20.529Z,-1.00
2023-01-26T05:01:26.908Z,-0.90
2023-01-26T05:05:30.449Z,-0.91
2023-01-26T05:09:34.049Z,-0.88
2023-01-26T05:13:57.339Z,-0.88
2023-01-26T05:18:24.370Z,-0.90
2023-01-26T05:22:35.814Z,-0.86
2023-01-26T05:27:23.746Z,-0.91
2023-01-26T05:31:39.041Z,-0.76
2023-01-26T05:35:43.834Z,-0.88
2023-01-26T05:39:48.385Z,-0.90
2023-01-26T05:43:52.631Z,-0.97
2023-01-26T05:48:12.959Z,-0.92
2023-01-26T05:52:18.953Z,-0.83
2023-01-26T05:56:22.155Z,-0.95
2023-01-26T06:00:31.607Z,-0.88
2023-01-26T06:04:44.496Z,-0.99
2023-01-26T06:08:49.957Z,-1.07
2023-01-26T06:13:08.871Z,-0.91
2023-01-26T06:17:18.877Z,-0.84
2023-01-26T06:21:25.244Z,-0.77
2023-01-26T06:25:29.057Z,-0.85
2023-01-26T06:29:32.530Z,-0.76
2023-01-26T06:33:38.220Z,-0.79
2023-01-26T06:37:45.797Z,-0.65
2023-01-26T06:41:49.844Z,-0.65
2023-01-26T06:45:54.083Z,-0.62
2023-01-26T06:49:57.525Z,-0.84
2023-01-26T06:54:01.964Z,-0.69
2023-01-26T06:58:28.121Z,-0.65
2023-01-26T07:02:51.817Z,-0.67
2023-01-26T07:06:55.344Z,-0.61
2023-01-26T07:11:00.648Z,-0.49
2023-01-26T07:15:04.078Z,-0.51
2023-01-26T07:19:08.270Z,-0.78
2023-01-26T07:23:12.743Z,-0.65
2023-01-26T07:27:17.493Z,-0.65
2023-01-26T07:31:21.656Z,-0.58
2023-01-26T07:35:25.707Z,-0.65
2023-01-26T07:39:30.362Z,-0.63
2023-01-26T07:43:37.169Z,-0.51
2023-01-26T07:47:45.017Z,-0.46
2023-01-26T07:51:49.001Z,-0.48
2023-01-26T07:55:53.154Z,-0.51
2023-01-26T07:59:59.051Z,-0.43
2023-01-26T08:04:02.576Z,-0.51
2023-01-26T08:08:07.190Z,-0.35
2023-01-26T08:12:10.771Z,-0.41
2023-01-26T08:16:16.013Z,-0.46
2023-01-26T08:20:20.275Z,-0.48
2023-01-26T08:24:24.381Z,-0.45
2023-01-26T08:28:27.794Z,-0.47
2023-01-26T08:32:32.242Z,-0.33
2023-01-26T08:36:36.108Z,-0.40
2023-01-26T08:40:40.566Z,-0.23
2023-01-26T08:44:44.947Z,-0.16
2023-01-26T08:48:49.317Z,-0.21
2023-01-26T08:52:52.737Z,-0.15
2023-01-26T08:56:56.066Z,-0.34
2023-01-26T09:00:59.706Z,-0.31
2023-01-26T09:05:05.920Z,-0.26
2023-01-26T09:09:13.711Z,-0.27
2023-01-26T09:13:17.864Z,-0.26
2023-01-26T09:17:22.143Z,-0.22
2023-01-26T09:21:27.816Z,-0.20
2023-01-26T09:25:32.100Z,-0.12
2023-01-26T09:29:36.567Z,-0.16
2023-01-26T09:33:40.840Z,0.07
2023-01-26T09:37:46.573Z,0.22
2023-01-26T09:42:04.965Z,0.16
2023-01-26T09:46:21.685Z,0.24
2023-01-26T09:50:29.881Z,0.09
2023-01-26T09:54:40.024Z,0.30
2023-01-26T09:58:48.774Z,0.22
2023-01-26T10:03:05.381Z,0.42
2023-01-26T10:07:12.702Z,0.44
2023-01-26T10:11:29.325Z,0.29
2023-01-26T10:15:39.405Z,0.44
2023-01-26T10:19:47.127Z,0.22
2023-01-26T10:23:52.097Z,0.31
2023-01-26T10:27:57.770Z,0.35
2023-01-26T10:32:01.069Z,0.16
2023-01-26T10:36:07.695Z,0.56
2023-01-26T10:40:13.133Z,0.46
2023-01-26T10:44:30.768Z,0.57
2023-01-26T10:48:35.574Z,0.66
2023-01-26T10:52:39.670Z,0.74
2023-01-26T10:56:47.025Z,1.06
2023-01-26T11:00:57.861Z,0.89
2023-01-26T11:05:23.728Z,0.94
2023-01-26T11:09:31.958Z,0.95
2023-01-26T11:13:36.154Z,0.74
2023-01-26T11:17:47.465Z,0.81
2023-01-26T11:21:57.692Z,1.01
2023-01-26T11:26:15.423Z,0.85
2023-01-26T11:30:48.275Z,1.05
2023-01-26T11:35:04.930Z,0.85
2023-01-26T11:39:21.670Z,0.96
2023-01-26T11:43:52.599Z,0.94
2023-01-26T11:48:15.073Z,1.15
2023-01-26T11:52:33.746Z,1.12
2023-01-26T11:56:50.022Z,1.13
2023-01-26T12:00:57.548Z,1.02
2023-01-26T12:05:06.292Z,1.04
2023-01-26T12:09:18.889Z,1.18
2023-01-26T12:13:35.085Z,1.14
2023-01-26T12:17:50.435Z,1.10
2023-01-26T12:21:58.460Z,1.19
2023-01-26T12:26:09.289Z,1.20
2023-01-26T12:30:28.721Z,1.27
2023-01-26T12:34:34.797Z,1.44
2023-01-26T12:38:48.173Z,1.26
2023-01-26T12:43:05.131Z,1.29
2023-01-26T12:47:16.768Z,1.16
2023-01-26T12:51:27.066Z,1.23
2023-01-26T12:55:36.377Z,1.21
2023-01-26T12:59:48.322Z,1.17
2023-01-26T13:03:56.797Z,1.11
2023-01-26T13:08:20.727Z,1.12
2023-01-26T13:12:46.065Z,1.22
2023-01-26T13:16:51.630Z,1.16
2023-01-26T13:20:55.781Z,1.28
2023-01-26T13:25:00.743Z,1.40
2023-01-26T13:29:29.266Z,1.35
2023-01-26T13:33:34.752Z,1.47
2023-01-26T13:37:51.305Z,1.51
2023-01-26T13:41:56.387Z,1.55
2023-01-26T13:46:10.958Z,1.48
2023-01-26T13:50:30.827Z,1.65
2023-01-26T13:54:34.716Z,1.79
2023-01-26T13:58:39.020Z,1.81
2023-01-26T14:02:42.242Z,1.86
2023-01-26T14:06:51.288Z,1.97
2023-01-26T14:10:55.560Z,2.04
2023-01-26T14:15:04.088Z,2.23
2023-01-26T14:19:16.554Z,2.39
2023-01-26T14:23:21.208Z,2.49
2023-01-26T14:27:33.507Z,2.56
2023-01-26T14:31:38.682Z,2.54
2023-01-26T14:35:43.447Z,2.64
2023-01-26T14:39:48.456Z,2.64
2023-01-26T14:43:56.070Z,2.70
2023-01-26T14:48:07.157Z,2.77
2023-01-26T14:52:20.372Z,2.80
2023-01-26T14:56:34.531Z,2.83
2023-01-26T15:00:40.496Z,2.87
2023-01-26T15:04:50.849Z,2.91
2023-01-26T15:09:03.431Z,3.00
2023-01-26T15:13:20.259Z,3.06
2023-01-26T15:17:39.187Z,3.13
2023-01-26T15:21:44.410Z,3.14
2023-01-26T15:25:48.941Z,3.20
2023-01-26T15:30:02.009Z,3.25
2023-01-26T15:34:07.998Z,3.23
2023-01-26T15:38:13.518Z,3.29
2023-01-26T15:42:23.700Z,3.34
2023-01-26T15:46:28.443Z,3.34
2023-01-26T15:50:31.542Z,3.41
2023-01-26T15:54:35.508Z,3.39
2023-01-26T15:58:39.704Z,3.48
2023-01-26T16:02:46.057Z,3.51
2023-01-26T16:06:50.503Z,3.46
2023-01-26T16:10:57.170Z,3.49
2023-01-26T16:15:01.208Z,3.50
2023-01-26T16:19:06.730Z,3.48
2023-01-26T16:23:19.013Z,3.49
2023-01-26T16:27:23.813Z,3.49
2023-01-26T16:31:30.009Z,3.51
2023-01-26T16:35:35.793Z,3.51
2023-01-26T16:39:39.913Z,3.49
2023-01-26T16:43:44.525Z,3.50
2023-01-26T16:47:52.603Z,3.53
2023-01-26T16:51:57.767Z,3.48
2023-01-26T16:56:02.042Z,3.48
2023-01-26T17:00:07.994Z,3.49
2023-01-26T17:04:12.591Z,3.57
2023-01-26T17:08:17.858Z,3.66
2023-01-26T17:12:21.104Z,3.70
2023-01-26T17:16:27.119Z,3.71
2023-01-26T17:20:30.776Z,3.70
2023-01-26T17:24:36.275Z,3.68
2023-01-26T17:28:40.091Z,3.72
2023-01-26T17:32:44.356Z,3.67
2023-01-26T17:36:48.026Z,3.77
2023-01-26T17:40:57.577Z,3.65
2023-01-26T17:45:01.505Z,3.65
2023-01-26T17:49:07.996Z,3.66
2023-01-26T17:53:11.482Z,3.63
2023-01-26T17:57:16.802Z,3.66
2023-01-26T18:01:21.743Z,3.69
2023-01-26T18:05:26.031Z,3.67
2023-01-26T18:09:29.485Z,3.62
2023-01-26T18:13:35.248Z,3.63
2023-01-26T18:17:39.283Z,3.59
2023-01-26T18:21:43.262Z,3.63
2023-01-26T18:25:46.740Z,3.67
2023-01-26T18:29:52.112Z,3.62
2023-01-26T18:33:57.293Z,3.59
2023-01-26T18:38:01.286Z,3.65
2023-01-26T18:42:05.956Z,3.62
2023-01-26T18:46:12.103Z,3.59
2023-01-26T18:50:16.241Z,3.56
2023-01-26T18:54:20.698Z,3.60
2023-01-26T18:58:25.012Z,3.61
2023-01-26T19:02:33.835Z,3.64
2023-01-26T19:06:37.785Z,3.63
2023-01-26T19:10:41.690Z,3.65
2023-01-26T19:14:46.002Z,3.67
2023-01-26T19:18:52.065Z,3.64
2023-01-26T19:22:57.852Z,3.66
2023-01-26T19:27:01.798Z,3.63
2023-01-26T19:31:05.991Z,3.69
2023-01-26T19:35:14.395Z,3.70
2023-01-26T19:39:18.875Z,3.73
2023-01-26T19:43:24.060Z,3.75
2023-01-26T19:47:27.186Z,3.77
2023-01-26T19:51:33.456Z,3.79
2023-01-26T19:55:37.622Z,3.79
2023-01-26T19:59:40.842Z,3.86
2023-01-26T20:03:45.348Z,3.91
2023-01-26T20:07:51.139Z,3.94
2023-01-26T20:11:55.516Z,3.95
2023-01-26T20:16:00.040Z,3.99
2023-01-26T20:20:04.522Z,4.00
2023-01-26T20:24:13.638Z,4.05
2023-01-26T20:28:17.968Z,4.04
2023-01-26T20:32:21.677Z,4.08
2023-01-26T20:36:28.309Z,4.12
2023-01-26T20:40:33.974Z,4.12
2023-01-26T20:44:39.295Z,4.12
2023-01-26T20:48:43.953Z,4.18
2023-01-26T20:52:48.049Z,4.17
2023-01-26T20:56:53.635Z,4.19
2023-01-26T21:01:05.212Z,4.20
2023-01-26T21:05:10.128Z,4.22
2023-01-26T21:09:14.289Z,4.21
2023-01-26T21:13:20.376Z,4.23
2023-01-26T21:17:25.019Z,4.23
2023-01-26T21:21:29.600Z,4.27
2023-01-26T21:25:34.228Z,4.27
2023-01-26T21:29:40.407Z,4.28
2023-01-26T21:33:45.940Z,4.28
2023-01-26T21:37:49.171Z,4.26
2023-01-26T21:41:59.638Z,4.28
2023-01-26T21:46:05.464Z,4.28
2023-01-26T21:50:11.321Z,4.28
2023-01-26T21:54:15.993Z,4.30
2023-01-26T21:58:36.861Z,4.31
2023-01-26T22:02:42.279Z,4.35
2023-01-26T22:06:46.528Z,4.30
2023-01-26T22:10:55.504Z,4.31
2023-01-26T22:14:59.692Z,4.28
2023-01-26T22:19:05.504Z,4.33
2023-01-26T22:23:09.931Z,4.33
2023-01-26T22:27:13.916Z,4.32
2023-01-26T22:31:19.798Z,4.30
2023-01-26T22:35:24.373Z,4.30
2023-01-26T22:39:28.712Z,4.31
2023-01-26T22:43:33.563Z,4.28
2023-01-26T22:47:38.574Z,4.28
2023-01-26T22:51:44.084Z,4.31
2023-01-26T22:55:52.684Z,4.31
2023-01-26T22:59:56.726Z,4.30
2023-01-26T23:04:01.351Z,4.24
2023-01-26T23:08:08.117Z,4.22
2023-01-26T23:12:12.385Z,4.17
2023-01-26T23:16:16.819Z,4.10
2023-01-26T23:20:21.550Z,4.03
2023-01-26T23:24:27.471Z,3.91
2023-01-26T23:28:33.938Z,3.85
2023-01-26T23:32:37.219Z,3.80
2023-01-26T23:36:41.325Z,3.80
2023-01-26T23:40:47.087Z,3.74
2023-01-26T23:44:51.119Z,3.61
2023-01-26T23:48:55.676Z,3.47
2023-01-26T23:53:00.099Z,3.49
2023-01-26T23:57:05.932Z,3.36
